createdAt,value
2018-11-10T00:02:39.327Z,14.83
2018-11-10T00:05:43.421Z,14.60
2018-11-10T00:08:47.506Z,16.83
2018-11-10T00:11:51.569Z,14.37
2018-11-10T00:14:55.751Z,16.43
2018-11-10T00:17:59.853Z,16.23
2018-11-10T00:21:03.967Z,14.67
2018-11-10T00:24:08.120Z,15.17
2018-11-10T00:27:12.263Z,13.90
2018-11-10T00:30:18.671Z,14.77
2018-11-10T00:33:22.772Z,14.63
2018-11-10T00:36:26.876Z,16.30
2018-11-10T00:39:31.317Z,14.77
2018-11-10T00:42:35.477Z,15.40
2018-11-10T00:45:39.594Z,13.37
2018-11-10T00:48:43.739Z,14.97
2018-11-10T00:51:47.956Z,14.97
2018-11-10T00:54:52.084Z,14.67
2018-11-10T00:57:56.308Z,14.63
2018-11-10T01:01:00.579Z,14.20
2018-11-10T01:04:05.086Z,14.43
2018-11-10T01:07:09.151Z,15.47
2018-11-10T01:10:14.120Z,14.80
2018-11-10T01:13:18.227Z,16.13
2018-11-10T01:16:22.420Z,13.47
2018-11-10T01:19:26.589Z,14.97
2018-11-10T01:22:30.744Z,13.30
2018-11-10T01:25:34.843Z,14.27
2018-11-10T01:28:38.940Z,12.83
2018-11-10T01:31:43.043Z,14.57
2018-11-10T01:34:47.108Z,13.70
2018-11-10T01:37:51.228Z,14.07
2018-11-10T01:40:55.279Z,14.13
2018-11-10T01:43:59.388Z,13.67
2018-11-10T01:47:03.575Z,14.43
2018-11-10T01:50:08.462Z,12.27
2018-11-10T01:53:12.558Z,15.13
2018-11-10T01:56:16.619Z,13.60
2018-11-10T01:59:20.663Z,16.63
2018-11-10T02:02:31.089Z,15.40
2018-11-10T02:05:35.140Z,14.43
2018-11-10T02:08:39.174Z,13.53
2018-11-10T02:11:43.316Z,13.73
2018-11-10T02:14:47.361Z,16.13
2018-11-10T02:17:51.730Z,15.40
2018-11-10T02:20:55.794Z,18.53
2018-11-10T02:23:59.897Z,13.80
2018-11-10T02:27:06.595Z,14.13
2018-11-10T02:30:11.570Z,17.20
2018-11-10T02:33:15.761Z,22.20
2018-11-10T02:36:19.847Z,23.30
2018-11-10T02:39:23.901Z,20.07
2018-11-10T02:42:27.996Z,19.97
2018-11-10T02:45:32.045Z,22.53
2018-11-10T02:48:36.225Z,20.03
2018-11-10T02:51:40.292Z,20.70
2018-11-10T02:54:44.541Z,20.27
2018-11-10T02:57:48.588Z,20.13
2018-11-10T03:00:52.680Z,19.30
2018-11-10T03:03:56.839Z,18.63
2018-11-10T03:07:00.931Z,17.70
2018-11-10T03:10:05.966Z,15.23
2018-11-10T03:13:10.016Z,15.50
2018-11-10T03:16:14.088Z,18.70
2018-11-10T03:19:18.139Z,16.63
2018-11-10T03:22:22.206Z,14.77
2018-11-10T03:25:26.248Z,15.73
2018-11-10T03:28:30.311Z,14.70
2018-11-10T03:31:34.384Z,15.37
2018-11-10T03:34:38.420Z,23.80
2018-11-10T03:37:42.677Z,18.90
2018-11-10T03:40:46.785Z,14.20
2018-11-10T03:43:50.821Z,15.17
2018-11-10T03:46:54.888Z,13.53
2018-11-10T03:49:58.919Z,14.50
2018-11-10T03:53:03.071Z,14.23
2018-11-10T03:56:07.771Z,14.00
2018-11-10T03:59:11.836Z,14.47
2018-11-10T04:02:15.902Z,14.10
2018-11-10T04:05:19.996Z,13.50
2018-11-10T04:08:23.995Z,14.13
2018-11-10T04:11:28.034Z,13.37
2018-11-10T04:14:32.097Z,12.17
2018-11-10T04:17:36.457Z,12.90
2018-11-10T04:20:40.524Z,12.53
2018-11-10T04:23:44.647Z,13.50
2018-11-10T04:26:48.736Z,13.67
2018-11-10T04:29:52.774Z,14.80
2018-11-10T04:32:56.813Z,12.57
2018-11-10T04:36:00.891Z,13.83
2018-11-10T04:39:07.194Z,14.23
2018-11-10T04:42:11.275Z,14.63
2018-11-10T04:45:15.364Z,12.67
2018-11-10T04:48:19.447Z,14.13
2018-11-10T04:51:23.533Z,14.73
2018-11-10T04:54:27.621Z,14.30
2018-11-10T04:57:31.662Z,12.90
2018-11-10T05:00:35.751Z,13.27
2018-11-10T05:03:40.163Z,29.90
2018-11-10T05:06:44.312Z,20.07
2018-11-10T05:09:48.356Z,16.13
2018-11-10T05:12:52.376Z,14.13
2018-11-10T05:15:56.455Z,13.93
2018-11-10T05:19:00.514Z,14.07
2018-11-10T05:22:04.596Z,13.97
2018-11-10T05:25:09.709Z,13.63
2018-11-10T05:28:13.742Z,13.67
2018-11-10T05:31:17.904Z,14.37
2018-11-10T05:34:21.921Z,13.20
2018-11-10T05:37:25.996Z,14.80
2018-11-10T05:40:30.075Z,13.33
2018-11-10T05:43:34.176Z,12.07
2018-11-10T05:46:38.264Z,13.67
2018-11-10T05:49:42.408Z,14.73
2018-11-10T05:52:46.477Z,19.80
2018-11-10T05:55:50.628Z,14.70
2018-11-10T05:58:54.742Z,16.03
2018-11-10T06:01:58.815Z,13.40
2018-11-10T06:05:02.975Z,13.67
2018-11-10T06:08:07.027Z,13.80
2018-11-10T06:11:11.224Z,15.20
2018-11-10T06:14:15.318Z,13.30
2018-11-10T06:17:19.438Z,13.90
2018-11-10T06:20:23.541Z,13.50
2018-11-10T06:23:27.599Z,13.63
2018-11-10T06:26:31.702Z,13.90
2018-11-10T06:29:35.771Z,13.70
2018-11-10T06:32:39.898Z,13.23
2018-11-10T06:35:43.965Z,13.13
2018-11-10T06:38:48.033Z,14.27
2018-11-10T06:41:52.093Z,12.13
2018-11-10T06:44:56.170Z,13.60
2018-11-10T06:48:00.250Z,12.80
2018-11-10T06:51:04.346Z,13.93
2018-11-10T06:54:08.389Z,14.20
2018-11-10T06:57:12.945Z,13.70
2018-11-10T07:00:17.024Z,11.97
2018-11-10T07:03:21.121Z,13.50
2018-11-10T07:06:25.712Z,14.50
2018-11-10T07:09:29.908Z,12.43
2018-11-10T07:12:33.937Z,13.13
2018-11-10T07:15:38.018Z,12.80
2018-11-10T07:18:42.334Z,11.10
2018-11-10T07:21:46.469Z,12.00
2018-11-10T07:24:50.672Z,11.63
2018-11-10T07:27:54.718Z,11.73
2018-11-10T07:31:01.729Z,15.83
2018-11-10T07:34:05.833Z,15.47
2018-11-10T07:37:09.972Z,13.93
2018-11-10T07:40:14.447Z,15.37
2018-11-10T07:43:18.672Z,15.40
2018-11-10T07:46:22.914Z,14.60
2018-11-10T07:49:27.065Z,16.13
2018-11-10T07:52:31.208Z,14.17
2018-11-10T07:55:35.295Z,14.53
2018-11-10T07:58:39.457Z,14.27
2018-11-10T08:01:43.739Z,14.70
2018-11-10T08:04:47.852Z,15.03
2018-11-10T08:07:52.081Z,13.60
2018-11-10T08:10:56.255Z,13.20
2018-11-10T08:14:00.405Z,22.07
2018-11-10T08:17:04.641Z,14.20
2018-11-10T08:20:09.313Z,13.50
2018-11-10T08:23:13.412Z,13.07
2018-11-10T08:26:17.622Z,13.67
2018-11-10T08:29:21.826Z,13.53
2018-11-10T08:32:26.399Z,13.57
2018-11-10T08:35:30.617Z,14.67
2018-11-10T08:38:34.895Z,14.13
2018-11-10T08:41:39.227Z,12.87
2018-11-10T08:44:43.599Z,12.70
2018-11-10T08:47:47.734Z,12.30
2018-11-10T08:50:51.925Z,10.53
2018-11-10T08:53:56.005Z,12.87
2018-11-10T08:57:00.150Z,11.63
2018-11-10T09:00:05.366Z,11.97
2018-11-10T09:03:09.443Z,11.87
2018-11-10T09:06:13.620Z,14.13
2018-11-10T09:09:17.831Z,12.37
2018-11-10T09:12:28.274Z,11.93
2018-11-10T09:15:32.547Z,10.90
2018-11-10T09:18:36.761Z,12.27
2018-11-10T09:21:40.898Z,12.40
2018-11-10T09:24:45.166Z,12.33
2018-11-10T09:27:49.372Z,12.27
2018-11-10T09:30:53.734Z,9.60
2018-11-10T09:33:57.854Z,11.03
2018-11-10T09:37:01.954Z,9.77
2018-11-10T09:40:07.741Z,11.63
2018-11-10T09:43:11.906Z,10.30
2018-11-10T09:46:16.025Z,9.80
2018-11-10T09:49:20.436Z,9.93
2018-11-10T09:52:24.671Z,9.90
2018-11-10T09:55:28.804Z,9.47
2018-11-10T09:58:32.958Z,10.53
2018-11-10T10:01:37.387Z,9.23
2018-11-10T10:04:41.384Z,9.33
2018-11-10T10:07:45.782Z,8.87
2018-11-10T10:10:49.899Z,9.23
2018-11-10T10:13:54.001Z,9.50
2018-11-10T10:16:58.121Z,10.00
2018-11-10T10:20:02.294Z,10.33
2018-11-10T10:23:06.479Z,10.53
2018-11-10T10:26:10.638Z,8.70
2018-11-10T10:29:14.714Z,9.83
2018-11-10T10:32:18.931Z,9.40
2018-11-10T10:35:23.181Z,8.80
2018-11-10T10:38:27.168Z,8.70
2018-11-10T10:41:31.277Z,10.63
2018-11-10T10:44:35.371Z,11.73
2018-11-10T10:47:39.629Z,10.37
2018-11-10T10:50:44.227Z,10.10
2018-11-10T10:53:48.332Z,9.50
2018-11-10T10:56:52.464Z,10.37
2018-11-10T10:59:56.600Z,9.33
2018-11-10T11:03:06.048Z,9.47
2018-11-10T11:06:10.192Z,9.23
2018-11-10T11:09:14.303Z,9.33
2018-11-10T11:12:18.736Z,10.23
2018-11-10T11:15:23.248Z,10.37
2018-11-10T11:18:30.277Z,10.07
2018-11-10T11:21:34.374Z,9.63
2018-11-10T11:24:38.788Z,10.37
2018-11-10T11:27:42.934Z,9.37
2018-11-10T11:30:46.987Z,10.33
2018-11-10T11:33:51.138Z,10.87
2018-11-10T11:36:55.386Z,10.80
2018-11-10T11:39:59.473Z,10.97
2018-11-10T11:43:03.606Z,10.77
2018-11-10T11:46:07.711Z,10.70
2018-11-10T11:49:11.878Z,10.90
2018-11-10T11:52:16.041Z,9.83
2018-11-10T11:55:20.120Z,10.70
2018-11-10T11:58:24.408Z,10.83
2018-11-10T12:01:28.363Z,11.03
2018-11-10T12:04:32.494Z,10.80
2018-11-10T12:07:36.725Z,10.80
2018-11-10T12:10:40.839Z,10.27
2018-11-10T12:13:45.240Z,10.50
2018-11-10T12:16:49.994Z,11.17
2018-11-10T12:19:54.076Z,13.20
2018-11-10T12:22:58.260Z,10.83
2018-11-10T12:26:02.744Z,11.37
2018-11-10T12:29:06.894Z,11.43
2018-11-10T12:32:10.982Z,11.90
2018-11-10T12:35:15.198Z,10.83
2018-11-10T12:38:19.260Z,11.13
2018-11-10T12:41:23.386Z,10.13
2018-11-10T12:44:27.524Z,10.07
2018-11-10T12:47:31.738Z,11.70
2018-11-10T12:50:35.779Z,11.30
2018-11-10T12:53:39.818Z,10.33
2018-11-10T12:56:43.976Z,9.97
2018-11-10T12:59:48.034Z,9.53
2018-11-10T13:02:52.127Z,9.87
2018-11-10T13:05:56.199Z,12.10
2018-11-10T13:09:00.327Z,11.00
2018-11-10T13:12:04.783Z,10.67
2018-11-10T13:15:09.312Z,12.97
2018-11-10T13:18:13.383Z,10.87
2018-11-10T13:21:17.454Z,10.73
2018-11-10T13:24:21.592Z,10.83
2018-11-10T13:27:25.867Z,10.63
2018-11-10T13:30:30.074Z,11.30
2018-11-10T13:33:34.091Z,11.10
2018-11-10T13:36:38.181Z,11.47
2018-11-10T13:39:42.328Z,10.17
2018-11-10T13:42:46.390Z,11.97
2018-11-10T13:45:50.485Z,10.70
2018-11-10T13:48:54.545Z,11.80
2018-11-10T13:51:59.060Z,11.67
2018-11-10T13:55:02.748Z,11.63
2018-11-10T13:58:06.874Z,10.47
2018-11-10T14:01:10.957Z,11.57
2018-11-10T14:04:15.115Z,10.77
2018-11-10T14:07:19.247Z,10.40
2018-11-10T14:10:23.390Z,11.40
2018-11-10T14:13:27.458Z,10.67
2018-11-10T14:16:31.553Z,11.57
2018-11-10T14:19:35.957Z,11.43
2018-11-10T14:22:40.055Z,11.77
2018-11-10T14:25:44.340Z,11.67
2018-11-10T14:28:48.417Z,11.33
2018-11-10T14:31:52.490Z,12.07
2018-11-10T14:34:56.662Z,12.27
2018-11-10T14:38:00.708Z,11.40
2018-11-10T14:41:05.368Z,12.20
2018-11-10T14:44:09.814Z,11.27
2018-11-10T14:47:13.928Z,11.73
2018-11-10T14:50:18.877Z,11.57
2018-11-10T14:53:23.098Z,9.33
2018-11-10T14:56:27.237Z,9.87
2018-11-10T14:59:31.349Z,11.27
2018-11-10T15:02:35.493Z,10.30
2018-11-10T15:05:39.625Z,10.90
2018-11-10T15:08:44.030Z,10.77
2018-11-10T15:11:48.469Z,10.67
2018-11-10T15:14:52.551Z,9.90
2018-11-10T15:17:56.779Z,10.63
2018-11-10T15:21:01.025Z,12.53
2018-11-10T15:24:05.574Z,11.57
2018-11-10T15:27:09.804Z,11.17
2018-11-10T15:30:16.537Z,11.80
2018-11-10T15:33:20.799Z,10.27
2018-11-10T15:36:25.051Z,9.30
2018-11-10T15:39:29.159Z,12.43
2018-11-10T15:42:33.516Z,9.03
2018-11-10T15:45:37.592Z,10.93
2018-11-10T15:48:41.833Z,10.37
2018-11-10T15:51:45.968Z,9.17
2018-11-10T15:54:50.084Z,10.40
2018-11-10T15:57:54.197Z,9.90
2018-11-10T16:00:58.408Z,9.50
2018-11-10T16:04:02.675Z,9.17
2018-11-10T16:07:06.897Z,10.53
2018-11-10T16:10:11.574Z,10.03
2018-11-10T16:13:15.835Z,9.77
2018-11-10T16:16:19.969Z,10.50
2018-11-10T16:19:24.711Z,10.40
2018-11-10T16:22:29.058Z,10.90
2018-11-10T16:25:33.431Z,11.30
2018-11-10T16:28:37.701Z,10.30
2018-11-10T16:31:41.735Z,10.60
2018-11-10T16:34:45.866Z,10.70
2018-11-10T16:37:49.969Z,12.03
2018-11-10T16:40:54.088Z,11.33
2018-11-10T16:43:58.183Z,11.83
2018-11-10T16:47:02.339Z,11.03
2018-11-10T16:50:07.143Z,14.43
2018-11-10T16:53:11.413Z,11.50
2018-11-10T16:56:15.601Z,11.70
2018-11-10T16:59:19.853Z,12.73
2018-11-10T17:02:24.319Z,12.87
2018-11-10T17:05:28.522Z,11.23
2018-11-10T17:08:32.842Z,12.23
2018-11-10T17:11:37.109Z,11.90
2018-11-10T17:14:41.278Z,11.97
2018-11-10T17:17:45.427Z,12.33
2018-11-10T17:20:49.667Z,11.97
2018-11-10T17:23:53.776Z,12.70
2018-11-10T17:26:57.887Z,12.10
2018-11-10T17:30:02.152Z,12.83
2018-11-10T17:33:06.289Z,13.67
2018-11-10T17:36:10.443Z,12.73
2018-11-10T17:39:14.622Z,13.20
2018-11-10T17:42:18.762Z,13.53
2018-11-10T17:45:22.789Z,12.77
2018-11-10T17:48:26.883Z,13.10
2018-11-10T17:51:30.964Z,12.80
2018-11-10T17:54:35.140Z,13.17
2018-11-10T17:57:39.656Z,12.93
2018-11-10T18:00:43.820Z,13.83
2018-11-10T18:03:47.964Z,13.23
2018-11-10T18:06:52.091Z,13.70
2018-11-10T18:09:56.313Z,13.10
2018-11-10T18:13:00.557Z,14.93
2018-11-10T18:16:04.883Z,12.57
2018-11-10T18:19:09.227Z,15.17
2018-11-10T18:22:13.254Z,14.13
2018-11-10T18:25:17.372Z,13.70
2018-11-10T18:28:21.482Z,14.57
2018-11-10T18:31:25.597Z,13.47
2018-11-10T18:34:29.751Z,13.70
2018-11-10T18:37:34.066Z,14.37
2018-11-10T18:40:38.154Z,14.27
2018-11-10T18:43:42.269Z,13.87
2018-11-10T18:46:46.543Z,13.20
2018-11-10T18:49:50.626Z,13.50
2018-11-10T18:52:54.849Z,13.73
2018-11-10T18:55:58.973Z,14.03
2018-11-10T18:59:03.112Z,13.50
2018-11-10T19:02:07.244Z,13.13
2018-11-10T19:05:12.865Z,13.93
2018-11-10T19:08:17.103Z,16.93
2018-11-10T19:11:21.220Z,12.97
2018-11-10T19:14:25.283Z,13.80
2018-11-10T19:17:29.422Z,14.53
2018-11-10T19:20:33.642Z,14.10
2018-11-10T19:23:37.754Z,12.77
2018-11-10T19:26:41.862Z,12.30
2018-11-10T19:29:45.923Z,14.20
2018-11-10T19:32:50.787Z,13.57
2018-11-10T19:35:54.869Z,11.60
2018-11-10T19:38:58.974Z,11.67
2018-11-10T19:42:03.180Z,13.20
2018-11-10T19:45:08.462Z,12.47
2018-11-10T19:48:12.624Z,13.23
2018-11-10T19:51:17.229Z,11.33
2018-11-10T19:54:21.251Z,11.50
2018-11-10T19:57:25.356Z,11.83
2018-11-10T20:00:29.499Z,12.10
2018-11-10T20:03:33.635Z,11.23
2018-11-10T20:06:37.722Z,11.30
2018-11-10T20:09:41.823Z,12.67
2018-11-10T20:12:46.092Z,12.13
2018-11-10T20:15:50.218Z,11.20
2018-11-10T20:18:54.319Z,12.60
2018-11-10T20:21:58.406Z,11.77
2018-11-10T20:25:02.484Z,11.80
2018-11-10T20:28:06.622Z,12.67
2018-11-10T20:31:10.842Z,12.37
2018-11-10T20:34:15.207Z,12.17
2018-11-10T20:37:19.287Z,12.07
2018-11-10T20:40:23.510Z,14.23
2018-11-10T20:43:27.573Z,11.17
2018-11-10T20:46:31.803Z,12.43
2018-11-10T20:49:35.967Z,11.80
2018-11-10T20:52:40.073Z,11.47
2018-11-10T20:55:44.325Z,12.10
2018-11-10T20:58:48.442Z,12.07
2018-11-10T21:01:52.532Z,11.53
2018-11-10T21:04:56.746Z,12.70
2018-11-10T21:08:00.862Z,12.17
2018-11-10T21:11:05.420Z,11.80
2018-11-10T21:14:11.140Z,12.10
2018-11-10T21:17:16.071Z,11.03
2018-11-10T21:20:20.247Z,9.93
2018-11-10T21:23:24.575Z,11.33
2018-11-10T21:26:28.703Z,12.10
2018-11-10T21:29:32.940Z,10.73
2018-11-10T21:32:37.022Z,11.90
2018-11-10T21:35:41.229Z,11.20
2018-11-10T21:38:45.295Z,10.83
2018-11-10T21:41:49.385Z,10.80
2018-11-10T21:44:53.506Z,11.57
2018-11-10T21:47:57.620Z,11.50
2018-11-10T21:51:01.716Z,10.90
2018-11-10T21:54:06.178Z,10.70
2018-11-10T21:57:10.268Z,11.70
2018-11-10T22:00:16.608Z,11.47
2018-11-10T22:03:20.786Z,12.30
2018-11-10T22:06:24.863Z,11.13
2018-11-10T22:09:29.138Z,10.17
2018-11-10T22:12:33.147Z,11.37
2018-11-10T22:15:37.231Z,11.20
2018-11-10T22:18:41.768Z,12.10
2018-11-10T22:21:45.882Z,11.17
2018-11-10T22:24:49.943Z,11.30
2018-11-10T22:27:54.634Z,11.33
2018-11-10T22:30:59.043Z,13.40
2018-11-10T22:34:03.063Z,12.97
2018-11-10T22:37:07.293Z,11.83
2018-11-10T22:40:14.126Z,12.30
2018-11-10T22:43:18.210Z,13.03
2018-11-10T22:46:22.274Z,10.83
2018-11-10T22:49:26.342Z,11.73
2018-11-10T22:52:30.428Z,12.83
2018-11-10T22:55:34.509Z,12.90
2018-11-10T22:58:38.600Z,12.50
2018-11-10T23:01:42.681Z,13.27
2018-11-10T23:04:46.894Z,12.27
2018-11-10T23:07:50.986Z,11.10
2018-11-10T23:10:55.197Z,11.53
2018-11-10T23:13:59.314Z,12.80
2018-11-10T23:17:03.523Z,11.73
2018-11-10T23:20:09.411Z,11.67
2018-11-10T23:23:13.620Z,11.87
2018-11-10T23:26:17.621Z,13.10
2018-11-10T23:29:21.794Z,12.57
2018-11-10T23:32:25.977Z,12.63
2018-11-10T23:35:30.037Z,11.90
2018-11-10T23:38:34.313Z,12.33
2018-11-10T23:41:39.180Z,12.77
2018-11-10T23:44:43.320Z,12.17
2018-11-10T23:47:47.475Z,11.13
2018-11-10T23:50:51.526Z,10.70
2018-11-10T23:53:55.684Z,10.77
2018-11-10T23:57:00.065Z,10.17
